sensor_id;sensor_type;location;lat;lon;timestamp;temperature;humidity
12682;DHT22;6405;59.208;18.216;2023-05-10T00:01:56;4.80;99.90
12682;DHT22;6405;59.208;18.216;2023-05-10T00:04:21;4.80;99.90
12682;DHT22;6405;59.208;18.216;2023-05-10T00:06:47;4.70;99.90
12682;DHT22;6405;59.208;18.216;2023-05-10T00:09:14;4.70;99.90
12682;DHT22;6405;59.208;18.216;2023-05-10T00:11:39;4.60;99.90
12682;DHT22;6405;59.208;18.216;2023-05-10T00:14:05;4.60;99.90
12682;DHT22;6405;59.208;18.216;2023-05-10T00:16:30;4.50;99.90
12682;DHT22;6405;59.208;18.216;2023-05-10T00:18:56;4.50;99.90
12682;DHT22;6405;59.208;18.216;2023-05-10T00:21:22;4.50;99.90
12682;DHT22;6405;59.208;18.216;2023-05-10T00:23:47;4.40;99.90
12682;DHT22;6405;59.208;18.216;2023-05-10T00:26:13;4.30;99.90
12682;DHT22;6405;59.208;18.216;2023-05-10T00:28:39;4.30;99.90
12682;DHT22;6405;59.208;18.216;2023-05-10T00:31:04;4.20;99.90
12682;DHT22;6405;59.208;18.216;2023-05-10T00:33:30;4.10;99.90
12682;DHT22;6405;59.208;18.216;2023-05-10T00:35:56;4.10;99.90
12682;DHT22;6405;59.208;18.216;2023-05-10T00:38:21;4.00;99.90
12682;DHT22;6405;59.208;18.216;2023-05-10T00:40:47;4.00;99.90
12682;DHT22;6405;59.208;18.216;2023-05-10T00:43:12;3.90;99.90
12682;DHT22;6405;59.208;18.216;2023-05-10T00:45:39;3.80;99.90
12682;DHT22;6405;59.208;18.216;2023-05-10T00:48:05;3.80;99.90
12682;DHT22;6405;59.208;18.216;2023-05-10T00:50:32;3.70;99.90
12682;DHT22;6405;59.208;18.216;2023-05-10T00:52:59;3.60;99.90
12682;DHT22;6405;59.208;18.216;2023-05-10T00:55:26;3.60;99.90
12682;DHT22;6405;59.208;18.216;2023-05-10T00:57:53;3.50;99.90
12682;DHT22;6405;59.208;18.216;2023-05-10T01:00:19;3.50;99.90
12682;DHT22;6405;59.208;18.216;2023-05-10T01:02:45;3.40;99.90
12682;DHT22;6405;59.208;18.216;2023-05-10T01:05:11;3.40;99.90
12682;DHT22;6405;59.208;18.216;2023-05-10T01:07:37;3.30;99.90
12682;DHT22;6405;59.208;18.216;2023-05-10T01:10:03;3.20;99.90
12682;DHT22;6405;59.208;18.216;2023-05-10T01:12:29;3.20;99.90
12682;DHT22;6405;59.208;18.216;2023-05-10T01:14:55;3.10;99.90
12682;DHT22;6405;59.208;18.216;2023-05-10T01:17:21;3.10;99.90
12682;DHT22;6405;59.208;18.216;2023-05-10T01:19:47;3.00;99.90
12682;DHT22;6405;59.208;18.216;2023-05-10T01:33:43;2.70;99.90
12682;DHT22;6405;59.208;18.216;2023-05-10T01:36:30;2.70;99.90
12682;DHT22;6405;59.208;18.216;2023-05-10T01:42:00;2.60;99.90
12682;DHT22;6405;59.208;18.216;2023-05-10T01:47:21;2.50;99.90
12682;DHT22;6405;59.208;18.216;2023-05-10T01:49:53;2.50;99.90
12682;DHT22;6405;59.208;18.216;2023-05-10T01:52:25;2.40;99.90
12682;DHT22;6405;59.208;18.216;2023-05-10T01:55:01;2.40;99.90
12682;DHT22;6405;59.208;18.216;2023-05-10T01:57:35;2.40;99.90
12682;DHT22;6405;59.208;18.216;2023-05-10T02:00:04;2.30;99.90
12682;DHT22;6405;59.208;18.216;2023-05-10T02:02:40;2.30;99.90
12682;DHT22;6405;59.208;18.216;2023-05-10T02:05:08;2.30;99.90
12682;DHT22;6405;59.208;18.216;2023-05-10T02:07:36;2.30;99.90
12682;DHT22;6405;59.208;18.216;2023-05-10T02:10:04;2.20;99.90
12682;DHT22;6405;59.208;18.216;2023-05-10T02:12:34;2.20;99.90
12682;DHT22;6405;59.208;18.216;2023-05-10T02:15:02;2.10;99.90
12682;DHT22;6405;59.208;18.216;2023-05-10T02:17:31;2.10;99.90
12682;DHT22;6405;59.208;18.216;2023-05-10T02:19:59;2.10;99.90
12682;DHT22;6405;59.208;18.216;2023-05-10T02:22:27;2.10;99.90
12682;DHT22;6405;59.208;18.216;2023-05-10T02:24:55;2.00;99.90
12682;DHT22;6405;59.208;18.216;2023-05-10T02:27:23;2.00;99.90
12682;DHT22;6405;59.208;18.216;2023-05-10T02:29:51;2.00;99.90
12682;DHT22;6405;59.208;18.216;2023-05-10T02:32:19;1.90;99.90
12682;DHT22;6405;59.208;18.216;2023-05-10T02:34:45;1.90;99.90
12682;DHT22;6405;59.208;18.216;2023-05-10T02:37:15;1.90;99.90
12682;DHT22;6405;59.208;18.216;2023-05-10T02:39:43;1.90;99.90
12682;DHT22;6405;59.208;18.216;2023-05-10T02:42:18;1.80;99.90
12682;DHT22;6405;59.208;18.216;2023-05-10T02:44:48;1.80;99.90
12682;DHT22;6405;59.208;18.216;2023-05-10T02:47:14;1.80;99.90
12682;DHT22;6405;59.208;18.216;2023-05-10T02:49:40;1.80;99.90
12682;DHT22;6405;59.208;18.216;2023-05-10T02:52:07;1.80;99.90
12682;DHT22;6405;59.208;18.216;2023-05-10T02:54:48;1.80;99.90
12682;DHT22;6405;59.208;18.216;2023-05-10T02:57:17;1.80;99.90
12682;DHT22;6405;59.208;18.216;2023-05-10T02:59:46;1.80;99.90
12682;DHT22;6405;59.208;18.216;2023-05-10T03:02:12;1.80;99.90
12682;DHT22;6405;59.208;18.216;2023-05-10T03:04:38;1.70;99.90
12682;DHT22;6405;59.208;18.216;2023-05-10T03:07:04;1.80;99.90
12682;DHT22;6405;59.208;18.216;2023-05-10T03:09:31;1.80;99.90
12682;DHT22;6405;59.208;18.216;2023-05-10T03:12:21;1.80;99.90
12682;DHT22;6405;59.208;18.216;2023-05-10T03:15:07;1.80;99.90
12682;DHT22;6405;59.208;18.216;2023-05-10T03:17:47;1.80;99.90
12682;DHT22;6405;59.208;18.216;2023-05-10T03:20:22;1.80;99.90
12682;DHT22;6405;59.208;18.216;2023-05-10T03:22:57;1.90;99.90
12682;DHT22;6405;59.208;18.216;2023-05-10T03:25:26;1.90;99.90
12682;DHT22;6405;59.208;18.216;2023-05-10T03:27:52;1.90;99.90
12682;DHT22;6405;59.208;18.216;2023-05-10T03:30:18;2.00;99.90
12682;DHT22;6405;59.208;18.216;2023-05-10T03:32:44;2.00;99.90
12682;DHT22;6405;59.208;18.216;2023-05-10T03:35:12;2.10;99.90
12682;DHT22;6405;59.208;18.216;2023-05-10T03:37:38;2.10;99.90
12682;DHT22;6405;59.208;18.216;2023-05-10T03:40:05;2.20;99.90
12682;DHT22;6405;59.208;18.216;2023-05-10T03:42:31;2.20;99.90
12682;DHT22;6405;59.208;18.216;2023-05-10T03:44:57;2.30;99.90
12682;DHT22;6405;59.208;18.216;2023-05-10T03:47:22;2.40;99.90
12682;DHT22;6405;59.208;18.216;2023-05-10T03:49:48;2.40;99.90
12682;DHT22;6405;59.208;18.216;2023-05-10T03:52:13;2.50;99.90
12682;DHT22;6405;59.208;18.216;2023-05-10T03:54:39;2.60;99.90
12682;DHT22;6405;59.208;18.216;2023-05-10T03:57:05;2.70;99.90
12682;DHT22;6405;59.208;18.216;2023-05-10T03:59:30;2.80;99.90
12682;DHT22;6405;59.208;18.216;2023-05-10T04:01:56;2.90;99.90
12682;DHT22;6405;59.208;18.216;2023-05-10T04:04:22;2.90;99.90
12682;DHT22;6405;59.208;18.216;2023-05-10T04:06:48;3.10;99.90
12682;DHT22;6405;59.208;18.216;2023-05-10T04:09:14;3.20;99.90
12682;DHT22;6405;59.208;18.216;2023-05-10T04:11:40;3.30;99.90
12682;DHT22;6405;59.208;18.216;2023-05-10T04:14:05;3.50;99.90
12682;DHT22;6405;59.208;18.216;2023-05-10T04:16:31;3.60;99.90
12682;DHT22;6405;59.208;18.216;2023-05-10T04:18:57;3.70;99.90
12682;DHT22;6405;59.208;18.216;2023-05-10T04:21:22;3.90;99.90
12682;DHT22;6405;59.208;18.216;2023-05-10T04:23:48;4.10;99.90
12682;DHT22;6405;59.208;18.216;2023-05-10T04:26:14;4.20;99.90
12682;DHT22;6405;59.208;18.216;2023-05-10T04:28:39;4.30;99.90
12682;DHT22;6405;59.208;18.216;2023-05-10T04:31:07;4.40;99.90
12682;DHT22;6405;59.208;18.216;2023-05-10T04:33:34;4.60;99.90
12682;DHT22;6405;59.208;18.216;2023-05-10T04:36:01;4.70;99.90
12682;DHT22;6405;59.208;18.216;2023-05-10T04:38:27;4.90;99.90
12682;DHT22;6405;59.208;18.216;2023-05-10T04:40:53;5.00;99.90
12682;DHT22;6405;59.208;18.216;2023-05-10T04:43:19;5.20;99.90
12682;DHT22;6405;59.208;18.216;2023-05-10T04:45:44;5.40;99.90
12682;DHT22;6405;59.208;18.216;2023-05-10T04:48:10;5.50;99.90
12682;DHT22;6405;59.208;18.216;2023-05-10T04:50:36;5.70;99.90
12682;DHT22;6405;59.208;18.216;2023-05-10T04:53:02;5.70;99.90
12682;DHT22;6405;59.208;18.216;2023-05-10T04:55:27;5.90;99.90
12682;DHT22;6405;59.208;18.216;2023-05-10T04:57:53;5.90;99.90
12682;DHT22;6405;59.208;18.216;2023-05-10T05:00:22;6.10;99.90
12682;DHT22;6405;59.208;18.216;2023-05-10T05:02:47;6.20;99.90
12682;DHT22;6405;59.208;18.216;2023-05-10T05:05:13;6.40;99.90
12682;DHT22;6405;59.208;18.216;2023-05-10T05:07:39;6.60;99.90
12682;DHT22;6405;59.208;18.216;2023-05-10T05:10:06;6.80;99.90
12682;DHT22;6405;59.208;18.216;2023-05-10T05:12:32;6.80;99.90
12682;DHT22;6405;59.208;18.216;2023-05-10T05:14:58;6.90;99.90
12682;DHT22;6405;59.208;18.216;2023-05-10T05:17:23;7.10;99.90
12682;DHT22;6405;59.208;18.216;2023-05-10T05:19:49;7.30;99.90
12682;DHT22;6405;59.208;18.216;2023-05-10T05:22:15;7.40;99.90
12682;DHT22;6405;59.208;18.216;2023-05-10T05:24:41;7.50;99.90
12682;DHT22;6405;59.208;18.216;2023-05-10T05:27:06;7.50;99.90
12682;DHT22;6405;59.208;18.216;2023-05-10T05:29:32;7.70;99.90
12682;DHT22;6405;59.208;18.216;2023-05-10T05:31:58;7.80;99.90
12682;DHT22;6405;59.208;18.216;2023-05-10T05:34:23;7.80;99.90
12682;DHT22;6405;59.208;18.216;2023-05-10T05:36:49;7.90;99.90
12682;DHT22;6405;59.208;18.216;2023-05-10T05:39:15;8.00;99.90
12682;DHT22;6405;59.208;18.216;2023-05-10T05:41:41;8.10;99.90
12682;DHT22;6405;59.208;18.216;2023-05-10T05:44:07;8.20;99.90
12682;DHT22;6405;59.208;18.216;2023-05-10T05:46:32;8.20;99.90
12682;DHT22;6405;59.208;18.216;2023-05-10T05:48:58;8.40;99.90
12682;DHT22;6405;59.208;18.216;2023-05-10T05:51:23;8.50;99.90
12682;DHT22;6405;59.208;18.216;2023-05-10T05:53:49;8.60;99.90
12682;DHT22;6405;59.208;18.216;2023-05-10T05:56:15;8.60;99.90
12682;DHT22;6405;59.208;18.216;2023-05-10T05:58:40;8.60;99.90
12682;DHT22;6405;59.208;18.216;2023-05-10T06:01:06;8.70;99.90
12682;DHT22;6405;59.208;18.216;2023-05-10T06:03:33;8.80;99.90
12682;DHT22;6405;59.208;18.216;2023-05-10T06:05:58;8.90;99.90
12682;DHT22;6405;59.208;18.216;2023-05-10T06:08:24;9.00;99.90
12682;DHT22;6405;59.208;18.216;2023-05-10T06:10:50;9.00;99.90
12682;DHT22;6405;59.208;18.216;2023-05-10T06:13:15;9.10;99.90
12682;DHT22;6405;59.208;18.216;2023-05-10T06:15:41;9.10;99.90
12682;DHT22;6405;59.208;18.216;2023-05-10T06:18:06;9.20;99.90
12682;DHT22;6405;59.208;18.216;2023-05-10T06:20:32;9.40;99.90
12682;DHT22;6405;59.208;18.216;2023-05-10T06:22:58;9.40;99.90
12682;DHT22;6405;59.208;18.216;2023-05-10T06:25:24;9.50;99.90
12682;DHT22;6405;59.208;18.216;2023-05-10T06:27:49;9.60;99.90
12682;DHT22;6405;59.208;18.216;2023-05-10T06:30:16;9.60;99.90
12682;DHT22;6405;59.208;18.216;2023-05-10T06:32:41;9.70;99.90
12682;DHT22;6405;59.208;18.216;2023-05-10T06:35:09;9.70;99.90
12682;DHT22;6405;59.208;18.216;2023-05-10T06:37:35;9.90;99.90
12682;DHT22;6405;59.208;18.216;2023-05-10T06:40:01;10.10;99.90
12682;DHT22;6405;59.208;18.216;2023-05-10T06:42:27;10.10;99.90
12682;DHT22;6405;59.208;18.216;2023-05-10T06:44:53;10.10;99.90
12682;DHT22;6405;59.208;18.216;2023-05-10T06:47:18;10.30;99.90
12682;DHT22;6405;59.208;18.216;2023-05-10T06:49:44;10.30;99.90
12682;DHT22;6405;59.208;18.216;2023-05-10T06:52:10;10.40;99.90
12682;DHT22;6405;59.208;18.216;2023-05-10T06:54:35;10.40;99.90
12682;DHT22;6405;59.208;18.216;2023-05-10T06:57:01;10.70;99.90
12682;DHT22;6405;59.208;18.216;2023-05-10T06:59:28;10.70;99.90
12682;DHT22;6405;59.208;18.216;2023-05-10T07:01:54;10.80;99.90
12682;DHT22;6405;59.208;18.216;2023-05-10T07:04:20;11.00;99.90
12682;DHT22;6405;59.208;18.216;2023-05-10T07:06:45;11.10;99.90
12682;DHT22;6405;59.208;18.216;2023-05-10T07:09:11;11.10;99.90
12682;DHT22;6405;59.208;18.216;2023-05-10T07:11:38;11.30;99.90
12682;DHT22;6405;59.208;18.216;2023-05-10T07:14:04;11.30;99.90
12682;DHT22;6405;59.208;18.216;2023-05-10T07:16:30;11.40;99.90
12682;DHT22;6405;59.208;18.216;2023-05-10T07:18:56;11.60;99.90
12682;DHT22;6405;59.208;18.216;2023-05-10T07:21:21;11.70;99.90
12682;DHT22;6405;59.208;18.216;2023-05-10T07:23:49;11.80;99.90
12682;DHT22;6405;59.208;18.216;2023-05-10T07:26:15;11.90;99.90
12682;DHT22;6405;59.208;18.216;2023-05-10T07:28:42;12.00;99.90
12682;DHT22;6405;59.208;18.216;2023-05-10T07:31:07;12.10;99.90
12682;DHT22;6405;59.208;18.216;2023-05-10T07:33:33;12.20;99.90
12682;DHT22;6405;59.208;18.216;2023-05-10T07:35:58;12.30;99.90
12682;DHT22;6405;59.208;18.216;2023-05-10T07:38:24;12.40;99.90
12682;DHT22;6405;59.208;18.216;2023-05-10T07:40:50;12.60;99.90
12682;DHT22;6405;59.208;18.216;2023-05-10T07:43:15;12.70;99.90
12682;DHT22;6405;59.208;18.216;2023-05-10T07:45:41;12.80;99.90
12682;DHT22;6405;59.208;18.216;2023-05-10T07:48:07;12.90;99.90
12682;DHT22;6405;59.208;18.216;2023-05-10T07:50:32;13.00;99.90
12682;DHT22;6405;59.208;18.216;2023-05-10T07:52:58;13.10;99.90
12682;DHT22;6405;59.208;18.216;2023-05-10T07:55:24;13.20;99.90
12682;DHT22;6405;59.208;18.216;2023-05-10T07:57:49;13.50;99.90
12682;DHT22;6405;59.208;18.216;2023-05-10T08:00:19;13.50;99.90
12682;DHT22;6405;59.208;18.216;2023-05-10T08:02:46;13.60;99.90
12682;DHT22;6405;59.208;18.216;2023-05-10T08:05:12;13.90;99.90
12682;DHT22;6405;59.208;18.216;2023-05-10T08:07:38;13.90;99.90
12682;DHT22;6405;59.208;18.216;2023-05-10T08:10:03;14.10;99.90
12682;DHT22;6405;59.208;18.216;2023-05-10T08:12:29;14.40;99.90
12682;DHT22;6405;59.208;18.216;2023-05-10T08:14:55;14.70;99.90
12682;DHT22;6405;59.208;18.216;2023-05-10T08:17:21;15.10;99.90
12682;DHT22;6405;59.208;18.216;2023-05-10T08:19:47;15.30;99.90
12682;DHT22;6405;59.208;18.216;2023-05-10T08:22:12;15.60;99.90
12682;DHT22;6405;59.208;18.216;2023-05-10T08:24:38;15.80;99.90
12682;DHT22;6405;59.208;18.216;2023-05-10T08:27:08;16.00;99.90
12682;DHT22;6405;59.208;18.216;2023-05-10T08:29:34;16.20;99.90
12682;DHT22;6405;59.208;18.216;2023-05-10T08:32:00;16.40;99.90
12682;DHT22;6405;59.208;18.216;2023-05-10T08:34:26;16.50;99.90
12682;DHT22;6405;59.208;18.216;2023-05-10T08:36:52;16.60;99.90
12682;DHT22;6405;59.208;18.216;2023-05-10T08:39:18;16.80;99.90
12682;DHT22;6405;59.208;18.216;2023-05-10T08:41:44;16.90;99.90
12682;DHT22;6405;59.208;18.216;2023-05-10T08:44:10;16.90;99.90
12682;DHT22;6405;59.208;18.216;2023-05-10T08:46:37;17.00;99.90
12682;DHT22;6405;59.208;18.216;2023-05-10T08:49:07;17.10;99.90
12682;DHT22;6405;59.208;18.216;2023-05-10T08:51:36;17.10;99.90
12682;DHT22;6405;59.208;18.216;2023-05-10T08:54:04;17.10;99.90
12682;DHT22;6405;59.208;18.216;2023-05-10T08:56:29;17.20;99.90
12682;DHT22;6405;59.208;18.216;2023-05-10T08:58:56;17.40;99.90
12682;DHT22;6405;59.208;18.216;2023-05-10T09:01:23;17.40;99.90
12682;DHT22;6405;59.208;18.216;2023-05-10T09:03:48;17.30;99.90
12682;DHT22;6405;59.208;18.216;2023-05-10T09:06:14;17.50;99.90
12682;DHT22;6405;59.208;18.216;2023-05-10T09:08:41;17.40;99.90
12682;DHT22;6405;59.208;18.216;2023-05-10T09:11:09;17.50;99.90
12682;DHT22;6405;59.208;18.216;2023-05-10T09:13:36;17.50;99.90
12682;DHT22;6405;59.208;18.216;2023-05-10T09:16:03;17.30;99.90
12682;DHT22;6405;59.208;18.216;2023-05-10T09:18:29;17.30;99.90
12682;DHT22;6405;59.208;18.216;2023-05-10T09:20:54;17.50;99.90
12682;DHT22;6405;59.208;18.216;2023-05-10T09:23:20;17.50;99.90
12682;DHT22;6405;59.208;18.216;2023-05-10T09:25:46;17.40;99.90
12682;DHT22;6405;59.208;18.216;2023-05-10T09:28:12;17.30;99.90
12682;DHT22;6405;59.208;18.216;2023-05-10T09:30:38;17.50;99.90
12682;DHT22;6405;59.208;18.216;2023-05-10T09:33:04;17.40;99.90
12682;DHT22;6405;59.208;18.216;2023-05-10T09:35:31;17.50;99.90
12682;DHT22;6405;59.208;18.216;2023-05-10T09:38:00;17.40;99.90
12682;DHT22;6405;59.208;18.216;2023-05-10T09:40:27;17.30;99.90
12682;DHT22;6405;59.208;18.216;2023-05-10T09:42:56;17.00;99.90
12682;DHT22;6405;59.208;18.216;2023-05-10T09:45:24;17.10;99.90
12682;DHT22;6405;59.208;18.216;2023-05-10T09:47:50;17.00;99.90
12682;DHT22;6405;59.208;18.216;2023-05-10T09:50:15;17.00;99.90
12682;DHT22;6405;59.208;18.216;2023-05-10T09:52:55;17.10;99.90
12682;DHT22;6405;59.208;18.216;2023-05-10T09:55:25;17.20;99.90
12682;DHT22;6405;59.208;18.216;2023-05-10T09:58:01;17.00;99.90
12682;DHT22;6405;59.208;18.216;2023-05-10T10:00:28;17.20;99.90
12682;DHT22;6405;59.208;18.216;2023-05-10T10:02:58;17.30;99.90
12682;DHT22;6405;59.208;18.216;2023-05-10T10:05:30;17.40;99.90
12682;DHT22;6405;59.208;18.216;2023-05-10T10:08:00;17.30;99.90
12682;DHT22;6405;59.208;18.216;2023-05-10T10:10:27;17.40;99.90
12682;DHT22;6405;59.208;18.216;2023-05-10T10:12:54;17.40;99.90
12682;DHT22;6405;59.208;18.216;2023-05-10T10:15:23;17.50;99.90
12682;DHT22;6405;59.208;18.216;2023-05-10T10:17:50;17.70;99.90
12682;DHT22;6405;59.208;18.216;2023-05-10T10:20:17;17.60;99.90
12682;DHT22;6405;59.208;18.216;2023-05-10T10:22:43;17.80;99.90
12682;DHT22;6405;59.208;18.216;2023-05-10T10:25:11;17.80;99.90
12682;DHT22;6405;59.208;18.216;2023-05-10T10:30:43;17.90;99.90
12682;DHT22;6405;59.208;18.216;2023-05-10T10:36:19;18.00;99.90
12682;DHT22;6405;59.208;18.216;2023-05-10T10:41:38;18.10;99.90
12682;DHT22;6405;59.208;18.216;2023-05-10T10:44:25;18.10;99.90
12682;DHT22;6405;59.208;18.216;2023-05-10T10:52:26;18.30;99.90
12682;DHT22;6405;59.208;18.216;2023-05-10T10:55:09;18.00;99.90
12682;DHT22;6405;59.208;18.216;2023-05-10T11:02:58;17.90;99.90
12682;DHT22;6405;59.208;18.216;2023-05-10T11:08:09;18.00;99.90
12682;DHT22;6405;59.208;18.216;2023-05-10T11:10:35;18.10;99.90
12682;DHT22;6405;59.208;18.216;2023-05-10T11:13:08;17.90;99.90
12682;DHT22;6405;59.208;18.216;2023-05-10T11:15:38;18.00;99.90
12682;DHT22;6405;59.208;18.216;2023-05-10T11:20:43;18.10;99.90
12682;DHT22;6405;59.208;18.216;2023-05-10T11:23:13;18.10;99.90
12682;DHT22;6405;59.208;18.216;2023-05-10T11:25:45;18.00;99.90
12682;DHT22;6405;59.208;18.216;2023-05-10T11:28:11;17.90;99.90
12682;DHT22;6405;59.208;18.216;2023-05-10T11:30:43;18.10;99.90
12682;DHT22;6405;59.208;18.216;2023-05-10T11:33:09;18.00;99.90
12682;DHT22;6405;59.208;18.216;2023-05-10T11:35:39;18.10;99.90
12682;DHT22;6405;59.208;18.216;2023-05-10T11:38:09;18.10;99.90
12682;DHT22;6405;59.208;18.216;2023-05-10T11:40:36;17.90;99.90
12682;DHT22;6405;59.208;18.216;2023-05-10T11:43:02;17.90;99.90
12682;DHT22;6405;59.208;18.216;2023-05-10T11:45:29;17.90;99.90
12682;DHT22;6405;59.208;18.216;2023-05-10T11:47:57;18.00;99.90
12682;DHT22;6405;59.208;18.216;2023-05-10T11:50:24;17.90;99.90
12682;DHT22;6405;59.208;18.216;2023-05-10T11:52:53;17.90;99.90
12682;DHT22;6405;59.208;18.216;2023-05-10T11:55:20;18.00;99.90
12682;DHT22;6405;59.208;18.216;2023-05-10T11:57:46;18.20;99.90
12682;DHT22;6405;59.208;18.216;2023-05-10T12:00:13;18.20;99.90
12682;DHT22;6405;59.208;18.216;2023-05-10T12:02:39;18.40;99.90
12682;DHT22;6405;59.208;18.216;2023-05-10T12:05:05;18.30;99.90
12682;DHT22;6405;59.208;18.216;2023-05-10T12:07:31;18.30;99.90
12682;DHT22;6405;59.208;18.216;2023-05-10T12:10:10;18.30;99.90
12682;DHT22;6405;59.208;18.216;2023-05-10T12:12:44;18.30;99.90
12682;DHT22;6405;59.208;18.216;2023-05-10T12:15:11;18.40;99.90
12682;DHT22;6405;59.208;18.216;2023-05-10T12:17:38;18.50;99.90
12682;DHT22;6405;59.208;18.216;2023-05-10T12:20:19;18.50;99.90
12682;DHT22;6405;59.208;18.216;2023-05-10T12:25:12;18.30;99.90
12682;DHT22;6405;59.208;18.216;2023-05-10T12:27:37;18.00;99.90
12682;DHT22;6405;59.208;18.216;2023-05-10T12:30:03;17.90;99.90
12682;DHT22;6405;59.208;18.216;2023-05-10T12:32:40;17.90;99.90
12682;DHT22;6405;59.208;18.216;2023-05-10T12:35:06;18.00;99.90
12682;DHT22;6405;59.208;18.216;2023-05-10T12:37:32;17.90;99.90
12682;DHT22;6405;59.208;18.216;2023-05-10T12:40:01;17.90;99.90
12682;DHT22;6405;59.208;18.216;2023-05-10T12:42:28;18.10;99.90
12682;DHT22;6405;59.208;18.216;2023-05-10T12:44:56;18.20;99.90
12682;DHT22;6405;59.208;18.216;2023-05-10T12:47:22;18.20;99.90
12682;DHT22;6405;59.208;18.216;2023-05-10T12:49:48;18.20;99.90
12682;DHT22;6405;59.208;18.216;2023-05-10T12:52:14;18.00;99.90
12682;DHT22;6405;59.208;18.216;2023-05-10T12:54:39;18.20;99.90
12682;DHT22;6405;59.208;18.216;2023-05-10T12:57:05;18.30;99.90
12682;DHT22;6405;59.208;18.216;2023-05-10T12:59:31;18.50;99.90
12682;DHT22;6405;59.208;18.216;2023-05-10T13:01:57;18.50;99.90
12682;DHT22;6405;59.208;18.216;2023-05-10T13:04:23;18.60;99.90
12682;DHT22;6405;59.208;18.216;2023-05-10T13:06:48;18.40;99.90
12682;DHT22;6405;59.208;18.216;2023-05-10T13:09:14;18.40;99.90
12682;DHT22;6405;59.208;18.216;2023-05-10T13:11:40;18.30;99.90
12682;DHT22;6405;59.208;18.216;2023-05-10T13:14:06;18.30;99.90
12682;DHT22;6405;59.208;18.216;2023-05-10T13:16:32;18.20;99.90
12682;DHT22;6405;59.208;18.216;2023-05-10T13:18:58;18.20;99.90
12682;DHT22;6405;59.208;18.216;2023-05-10T13:21:24;18.30;99.90
12682;DHT22;6405;59.208;18.216;2023-05-10T13:23:50;18.10;99.90
12682;DHT22;6405;59.208;18.216;2023-05-10T13:26:16;18.30;99.90
12682;DHT22;6405;59.208;18.216;2023-05-10T13:28:42;18.40;99.90
12682;DHT22;6405;59.208;18.216;2023-05-10T13:31:07;18.50;99.90
12682;DHT22;6405;59.208;18.216;2023-05-10T13:33:33;18.50;99.90
12682;DHT22;6405;59.208;18.216;2023-05-10T13:35:59;18.60;99.90
12682;DHT22;6405;59.208;18.216;2023-05-10T13:38:24;18.30;99.90
12682;DHT22;6405;59.208;18.216;2023-05-10T13:40:50;18.40;99.90
12682;DHT22;6405;59.208;18.216;2023-05-10T13:43:18;18.30;99.90
12682;DHT22;6405;59.208;18.216;2023-05-10T13:45:44;18.10;99.90
12682;DHT22;6405;59.208;18.216;2023-05-10T13:48:10;18.10;99.90
12682;DHT22;6405;59.208;18.216;2023-05-10T13:50:35;18.00;99.90
12682;DHT22;6405;59.208;18.216;2023-05-10T13:53:01;18.20;99.90
12682;DHT22;6405;59.208;18.216;2023-05-10T13:55:26;18.30;99.90
12682;DHT22;6405;59.208;18.216;2023-05-10T13:57:52;18.00;99.90
12682;DHT22;6405;59.208;18.216;2023-05-10T14:00:18;17.90;99.90
12682;DHT22;6405;59.208;18.216;2023-05-10T14:02:44;17.70;99.90
12682;DHT22;6405;59.208;18.216;2023-05-10T14:05:09;17.60;99.90
12682;DHT22;6405;59.208;18.216;2023-05-10T14:07:35;17.50;99.90
12682;DHT22;6405;59.208;18.216;2023-05-10T14:10:01;17.50;99.90
12682;DHT22;6405;59.208;18.216;2023-05-10T14:12:27;17.40;99.90
12682;DHT22;6405;59.208;18.216;2023-05-10T14:14:53;17.40;99.90
12682;DHT22;6405;59.208;18.216;2023-05-10T14:17:18;17.50;99.90
12682;DHT22;6405;59.208;18.216;2023-05-10T14:19:44;17.20;99.90
12682;DHT22;6405;59.208;18.216;2023-05-10T14:22:10;17.40;99.90
12682;DHT22;6405;59.208;18.216;2023-05-10T14:24:36;17.40;99.90
12682;DHT22;6405;59.208;18.216;2023-05-10T14:27:01;17.60;99.90
12682;DHT22;6405;59.208;18.216;2023-05-10T14:29:27;17.60;99.90
12682;DHT22;6405;59.208;18.216;2023-05-10T14:31:52;17.60;99.90
12682;DHT22;6405;59.208;18.216;2023-05-10T14:34:18;17.50;99.90
12682;DHT22;6405;59.208;18.216;2023-05-10T14:36:44;17.60;99.90
12682;DHT22;6405;59.208;18.216;2023-05-10T14:39:09;17.50;99.90
12682;DHT22;6405;59.208;18.216;2023-05-10T14:41:38;17.50;99.90
12682;DHT22;6405;59.208;18.216;2023-05-10T14:44:06;17.40;99.90
12682;DHT22;6405;59.208;18.216;2023-05-10T14:46:31;17.40;99.90
12682;DHT22;6405;59.208;18.216;2023-05-10T14:48:57;17.40;99.90
12682;DHT22;6405;59.208;18.216;2023-05-10T14:51:23;17.70;99.90
12682;DHT22;6405;59.208;18.216;2023-05-10T14:53:48;17.50;99.90
12682;DHT22;6405;59.208;18.216;2023-05-10T14:56:17;17.50;99.90
12682;DHT22;6405;59.208;18.216;2023-05-10T14:58:42;17.40;99.90
12682;DHT22;6405;59.208;18.216;2023-05-10T15:01:08;17.40;99.90
12682;DHT22;6405;59.208;18.216;2023-05-10T15:03:34;17.60;99.90
12682;DHT22;6405;59.208;18.216;2023-05-10T15:05:59;17.50;99.90
12682;DHT22;6405;59.208;18.216;2023-05-10T15:08:25;17.10;99.90
12682;DHT22;6405;59.208;18.216;2023-05-10T15:10:51;17.10;99.90
12682;DHT22;6405;59.208;18.216;2023-05-10T15:13:17;17.10;99.90
12682;DHT22;6405;59.208;18.216;2023-05-10T15:15:43;17.00;99.90
12682;DHT22;6405;59.208;18.216;2023-05-10T15:18:09;17.10;99.90
12682;DHT22;6405;59.208;18.216;2023-05-10T15:20:35;16.80;99.90
12682;DHT22;6405;59.208;18.216;2023-05-10T15:23:01;16.60;99.90
12682;DHT22;6405;59.208;18.216;2023-05-10T15:25:26;16.60;99.90
12682;DHT22;6405;59.208;18.216;2023-05-10T15:27:53;16.50;99.90
12682;DHT22;6405;59.208;18.216;2023-05-10T15:30:18;16.30;99.90
12682;DHT22;6405;59.208;18.216;2023-05-10T15:32:44;16.00;99.90
12682;DHT22;6405;59.208;18.216;2023-05-10T15:35:10;15.80;99.90
12682;DHT22;6405;59.208;18.216;2023-05-10T15:37:36;15.50;99.90
12682;DHT22;6405;59.208;18.216;2023-05-10T15:40:02;15.40;99.90
12682;DHT22;6405;59.208;18.216;2023-05-10T15:42:32;15.30;99.90
12682;DHT22;6405;59.208;18.216;2023-05-10T15:44:58;15.40;99.90
12682;DHT22;6405;59.208;18.216;2023-05-10T15:47:26;15.40;99.90
12682;DHT22;6405;59.208;18.216;2023-05-10T15:49:53;15.40;99.90
12682;DHT22;6405;59.208;18.216;2023-05-10T15:52:18;15.30;99.90
12682;DHT22;6405;59.208;18.216;2023-05-10T15:54:45;15.20;99.90
12682;DHT22;6405;59.208;18.216;2023-05-10T15:57:11;15.30;99.90
12682;DHT22;6405;59.208;18.216;2023-05-10T15:59:37;15.30;99.90
12682;DHT22;6405;59.208;18.216;2023-05-10T16:02:02;15.20;99.90
12682;DHT22;6405;59.208;18.216;2023-05-10T16:04:29;15.10;99.90
12682;DHT22;6405;59.208;18.216;2023-05-10T16:06:54;15.10;99.90
12682;DHT22;6405;59.208;18.216;2023-05-10T16:09:20;15.20;99.90
12682;DHT22;6405;59.208;18.216;2023-05-10T16:11:46;15.20;99.90
12682;DHT22;6405;59.208;18.216;2023-05-10T16:14:12;15.00;99.90
12682;DHT22;6405;59.208;18.216;2023-05-10T16:16:37;15.00;99.90
12682;DHT22;6405;59.208;18.216;2023-05-10T16:19:03;14.80;99.90
12682;DHT22;6405;59.208;18.216;2023-05-10T16:21:29;14.70;99.90